createdAt,value
2023-04-14T00:00:21.698Z,99624.77
2023-04-14T00:01:45.540Z,99626.92
2023-04-14T00:02:48.514Z,99625.84
2023-04-14T00:03:52.131Z,99627.97
2023-04-14T00:04:55.293Z,99630.65
2023-04-14T00:05:58.122Z,99624.42
2023-04-14T00:07:01.379Z,99623.63
2023-04-14T00:08:04.234Z,99622.77
2023-04-14T00:09:07.117Z,99628.27
2023-04-14T00:10:10.396Z,99619.02
2023-04-14T00:11:13.229Z,99622.08
2023-04-14T00:12:16.120Z,99628.26
2023-04-14T00:13:18.949Z,99621.92
2023-04-14T00:14:21.786Z,99625.86
2023-04-14T00:15:24.673Z,99627.60
2023-04-14T00:16:28.127Z,99622.23
2023-04-14T00:17:31.242Z,99621.89
2023-04-14T00:18:34.125Z,99624.38
2023-04-14T00:19:36.918Z,99622.16
2023-04-14T00:20:39.748Z,99625.25
2023-04-14T00:21:42.702Z,99627.86
2023-04-14T00:22:45.501Z,99625.77
2023-04-14T00:23:48.983Z,99624.39
2023-04-14T00:24:52.163Z,99626.50
2023-04-14T00:25:55.161Z,99623.42
2023-04-14T00:26:58.129Z,99632.75
2023-04-14T00:28:00.992Z,99632.70
2023-04-14T00:29:03.938Z,99633.34
2023-04-14T00:30:07.638Z,99627.17
2023-04-14T00:31:11.419Z,99625.52
2023-04-14T00:32:14.474Z,99623.23
2023-04-14T00:33:17.421Z,99622.14
2023-04-14T00:34:20.292Z,99620.65
2023-04-14T00:35:24.556Z,99617.33
2023-04-14T00:36:30.092Z,99619.09
2023-04-14T00:37:34.568Z,99623.84
2023-04-14T00:38:37.402Z,99621.56
2023-04-14T00:39:40.568Z,99618.00
2023-04-14T00:40:43.480Z,99620.10
2023-04-14T00:41:46.287Z,99627.02
2023-04-14T00:42:49.149Z,99619.02
2023-04-14T00:43:55.053Z,99620.30
2023-04-14T00:44:57.932Z,99625.17
2023-04-14T00:46:01.054Z,99621.27
2023-04-14T00:47:04.252Z,99615.73
2023-04-14T00:48:07.621Z,99620.64
2023-04-14T00:49:10.793Z,99616.00
2023-04-14T00:50:15.705Z,99607.70
2023-04-14T00:51:18.757Z,99609.80
2023-04-14T00:52:23.922Z,99610.45
2023-04-14T00:53:27.498Z,99618.29
2023-04-14T00:54:32.594Z,99611.80
2023-04-14T00:55:36.372Z,99612.86
2023-04-14T00:56:39.534Z,99612.60
2023-04-14T00:57:42.929Z,99614.16
2023-04-14T00:58:46.413Z,99617.60
2023-04-14T00:59:49.914Z,99608.09
2023-04-14T01:00:55.687Z,99618.11
2023-04-14T01:02:00.561Z,99619.20
2023-04-14T01:03:04.230Z,99614.52
2023-04-14T01:04:07.357Z,99613.70
2023-04-14T01:05:12.479Z,99614.83
2023-04-14T01:06:15.517Z,99611.34
2023-04-14T01:07:23.165Z,99609.14
2023-04-14T01:08:26.503Z,99614.19
2023-04-14T01:09:29.420Z,99612.48
2023-04-14T01:10:39.068Z,99612.37
2023-04-14T01:12:19.121Z,99613.98
2023-04-14T01:13:57.524Z,99608.10
2023-04-14T01:15:33.966Z,99609.11
2023-04-14T01:16:40.305Z,99610.76
2023-04-14T01:17:59.341Z,99619.61
2023-04-14T01:19:24.284Z,99615.90
2023-04-14T01:20:33.162Z,99625.20
2023-04-14T01:21:41.846Z,99622.92
2023-04-14T01:22:51.497Z,99627.06
2023-04-14T01:23:54.294Z,99623.30
2023-04-14T01:25:27.925Z,99621.50
2023-04-14T01:26:31.831Z,99620.83
2023-04-14T01:27:48.605Z,99616.80
2023-04-14T01:29:10.522Z,99622.06
2023-04-14T01:30:31.404Z,99623.27
2023-04-14T01:32:09.824Z,99621.54
2023-04-14T01:33:17.422Z,99620.34
2023-04-14T01:34:34.165Z,99624.48
2023-04-14T01:35:42.541Z,99623.52
2023-04-14T01:36:52.338Z,99626.08
2023-04-14T01:38:03.953Z,99628.84
2023-04-14T01:39:11.147Z,99625.69
2023-04-14T01:40:16.783Z,99631.35
2023-04-14T01:41:22.542Z,99629.16
2023-04-14T01:42:31.766Z,99629.83
2023-04-14T01:43:40.017Z,99627.58
2023-04-14T01:44:44.038Z,99630.64
2023-04-14T01:45:51.510Z,99628.21
2023-04-14T01:47:00.411Z,99626.66
2023-04-14T01:48:05.142Z,99631.52
2023-04-14T01:49:10.096Z,99621.45
2023-04-14T01:50:14.990Z,99631.27
2023-04-14T01:51:22.126Z,99625.77
2023-04-14T01:52:26.682Z,99626.97
2023-04-14T01:53:32.464Z,99621.56
2023-04-14T01:54:39.046Z,99625.77
2023-04-14T01:55:44.432Z,99622.80
2023-04-14T01:56:50.284Z,99619.45
2023-04-14T01:57:54.646Z,99620.73
2023-04-14T01:58:58.687Z,99619.09
2023-04-14T02:00:05.126Z,99619.65
2023-04-14T02:01:17.649Z,99620.84
2023-04-14T02:02:22.579Z,99619.04
2023-04-14T02:03:26.558Z,99615.02
2023-04-14T02:04:32.317Z,99615.77
2023-04-14T02:05:38.936Z,99616.80
2023-04-14T02:06:42.504Z,99617.13
2023-04-14T02:07:49.972Z,99609.77
2023-04-14T02:08:53.186Z,99612.77
2023-04-14T02:09:57.220Z,99611.99
2023-04-14T02:11:02.166Z,99614.74
2023-04-14T02:12:08.205Z,99612.11
2023-04-14T02:13:12.833Z,99613.73
2023-04-14T02:14:17.898Z,99611.84
2023-04-14T02:15:23.099Z,99612.48
2023-04-14T02:16:27.810Z,99615.02
2023-04-14T02:17:31.103Z,99611.58
2023-04-14T02:18:35.391Z,99611.20
2023-04-14T02:19:42.557Z,99613.30
2023-04-14T02:20:48.213Z,99613.29
2023-04-14T02:21:52.829Z,99612.05
2023-04-14T02:22:55.872Z,99620.95
2023-04-14T02:23:58.891Z,99612.90
2023-04-14T02:25:02.037Z,99623.16
2023-04-14T02:26:13.808Z,99617.73
2023-04-14T02:27:24.285Z,99620.02
2023-04-14T02:28:32.235Z,99628.52
2023-04-14T02:29:37.553Z,99622.77
2023-04-14T02:30:44.578Z,99624.63
2023-04-14T02:31:58.680Z,99620.59
2023-04-14T02:33:05.761Z,99622.14
2023-04-14T02:34:11.573Z,99620.64
2023-04-14T02:35:18.931Z,99626.15
2023-04-14T02:36:32.486Z,99622.55
2023-04-14T02:37:42.101Z,99624.27
2023-04-14T02:39:04.683Z,99625.67
2023-04-14T02:40:17.350Z,99614.27
2023-04-14T02:41:29.642Z,99625.73
2023-04-14T02:42:37.393Z,99622.65
2023-04-14T02:43:49.089Z,99625.08
2023-04-14T02:45:03.770Z,99623.71
2023-04-14T02:46:10.506Z,99618.73
2023-04-14T02:47:22.190Z,99624.77
2023-04-14T02:48:28.277Z,99623.45
2023-04-14T02:49:44.594Z,99619.40
2023-04-14T02:50:53.601Z,99615.73
2023-04-14T02:51:59.760Z,99621.80
2023-04-14T02:53:04.199Z,99618.14
2023-04-14T02:54:10.797Z,99625.75
2023-04-14T02:55:21.870Z,99625.29
2023-04-14T02:56:26.782Z,99626.48
2023-04-14T02:57:33.214Z,99624.34
2023-04-14T02:58:37.060Z,99623.66
2023-04-14T02:59:42.886Z,99625.80
2023-04-14T03:00:47.744Z,99626.20
2023-04-14T03:01:51.893Z,99626.61
2023-04-14T03:02:56.214Z,99629.08
2023-04-14T03:04:00.010Z,99624.90
2023-04-14T03:05:05.181Z,99624.04
2023-04-14T03:06:18.155Z,99625.56
2023-04-14T03:07:22.038Z,99627.21
2023-04-14T03:08:27.384Z,99626.02
2023-04-14T03:09:32.300Z,99630.52
2023-04-14T03:10:36.015Z,99632.52
2023-04-14T03:11:39.798Z,99632.75
2023-04-14T03:12:44.054Z,99626.84
2023-04-14T03:13:49.053Z,99633.39
2023-04-14T03:14:53.124Z,99627.52
2023-04-14T03:15:57.338Z,99630.21
2023-04-14T03:17:01.642Z,99626.18
2023-04-14T03:18:05.982Z,99624.78
2023-04-14T03:19:12.618Z,99626.58
2023-04-14T03:20:21.832Z,99627.13
2023-04-14T03:21:26.659Z,99627.19
2023-04-14T03:22:31.196Z,99626.43
2023-04-14T03:23:36.181Z,99627.38
2023-04-14T03:24:42.728Z,99628.83
2023-04-14T03:25:46.718Z,99633.16
2023-04-14T03:27:02.990Z,99631.87
2023-04-14T03:28:14.934Z,99628.11
2023-04-14T03:29:21.691Z,99626.55
2023-04-14T03:30:27.316Z,99633.29
2023-04-14T03:31:34.181Z,99631.84
2023-04-14T03:32:42.218Z,99634.44
2023-04-14T03:33:55.814Z,99631.70
2023-04-14T03:35:01.551Z,99635.38
2023-04-14T03:36:07.629Z,99636.66
2023-04-14T03:37:11.704Z,99641.39
2023-04-14T03:38:16.366Z,99640.85
2023-04-14T03:39:22.411Z,99641.77
2023-04-14T03:40:31.815Z,99642.77
2023-04-14T03:41:37.981Z,99634.86
2023-04-14T03:42:44.856Z,99636.32
2023-04-14T03:43:54.652Z,99639.60
2023-04-14T03:45:00.644Z,99644.44
2023-04-14T03:46:06.234Z,99646.92
2023-04-14T03:47:10.712Z,99649.01
2023-04-14T03:48:18.496Z,99652.64
2023-04-14T03:49:26.301Z,99653.30
2023-04-14T03:50:36.866Z,99657.27
2023-04-14T03:51:43.148Z,99654.97
2023-04-14T03:52:50.498Z,99656.33
2023-04-14T03:53:58.044Z,99660.52
2023-04-14T03:55:06.465Z,99661.76
2023-04-14T03:56:14.787Z,99656.38
2023-04-14T03:57:19.647Z,99661.83
2023-04-14T03:58:24.922Z,99656.69
2023-04-14T03:59:29.767Z,99655.23
2023-04-14T04:00:33.461Z,99658.57
2023-04-14T04:01:37.078Z,99653.23
2023-04-14T04:02:42.492Z,99660.45
2023-04-14T04:03:47.074Z,99661.80
2023-04-14T04:04:51.439Z,99661.33
2023-04-14T04:05:54.658Z,99655.83
2023-04-14T04:06:59.175Z,99655.66
2023-04-14T04:08:03.346Z,99661.83
2023-04-14T04:09:09.598Z,99650.71
2023-04-14T04:10:14.660Z,99651.73
2023-04-14T04:11:20.838Z,99655.95
2023-04-14T04:12:26.085Z,99653.92
2023-04-14T04:13:30.852Z,99653.91
2023-04-14T04:14:39.060Z,99657.52
2023-04-14T04:15:42.779Z,99662.05
2023-04-14T04:16:51.753Z,99658.95
2023-04-14T04:17:56.197Z,99655.05
2023-04-14T04:19:03.854Z,99652.84
2023-04-14T04:20:12.008Z,99658.11
2023-04-14T04:21:18.079Z,99660.90
2023-04-14T04:22:23.650Z,99662.96
2023-04-14T04:23:32.363Z,99664.73
2023-04-14T04:24:40.431Z,99665.33
2023-04-14T04:25:46.251Z,99663.11
2023-04-14T04:26:56.559Z,99667.92
2023-04-14T04:28:01.217Z,99661.23
2023-04-14T04:29:05.369Z,99662.25
2023-04-14T04:30:09.709Z,99659.85
2023-04-14T04:31:14.880Z,99665.48
2023-04-14T04:32:18.672Z,99673.28
2023-04-14T04:33:23.033Z,99667.23
2023-04-14T04:34:26.819Z,99672.38
2023-04-14T04:35:31.113Z,99671.50
2023-04-14T04:36:34.684Z,99672.02
2023-04-14T04:37:38.726Z,99672.28
2023-04-14T04:38:43.138Z,99671.86
2023-04-14T04:39:48.643Z,99669.91
2023-04-14T04:40:52.479Z,99668.31
2023-04-14T04:42:06.807Z,99674.60
2023-04-14T04:43:09.706Z,99676.85
2023-04-14T04:44:12.969Z,99672.96
2023-04-14T04:45:30.422Z,99677.40
2023-04-14T04:46:43.404Z,99668.55
2023-04-14T04:47:46.657Z,99675.48
2023-04-14T04:48:55.586Z,99665.38
2023-04-14T04:50:01.031Z,99670.38
2023-04-14T04:51:04.051Z,99671.60
2023-04-14T04:52:06.941Z,99669.67
2023-04-14T04:53:12.462Z,99669.67
2023-04-14T04:54:15.955Z,99671.34
2023-04-14T04:55:18.919Z,99671.98
2023-04-14T04:56:21.884Z,99674.98
2023-04-14T04:57:24.723Z,99677.82
2023-04-14T04:58:27.737Z,99683.05
2023-04-14T04:59:30.888Z,99679.27
2023-04-14T05:00:33.734Z,99678.10
2023-04-14T05:01:36.968Z,99671.85
2023-04-14T05:02:42.974Z,99671.32
2023-04-14T05:03:46.525Z,99672.82
2023-04-14T05:04:49.523Z,99673.22
2023-04-14T05:05:52.579Z,99674.02
2023-04-14T05:06:55.403Z,99675.11
2023-04-14T05:07:58.228Z,99671.31
2023-04-14T05:09:01.671Z,99676.67
2023-04-14T05:10:05.173Z,99677.20
2023-04-14T05:11:08.136Z,99679.32
2023-04-14T05:12:11.186Z,99681.89
2023-04-14T05:13:14.451Z,99675.74
2023-04-14T05:14:17.539Z,99683.40
2023-04-14T05:15:20.558Z,99681.77
2023-04-14T05:16:24.053Z,99680.82
2023-04-14T05:17:27.286Z,99678.08
2023-04-14T05:18:31.504Z,99679.55
2023-04-14T05:19:34.318Z,99678.55
2023-04-14T05:20:37.483Z,99676.95
2023-04-14T05:21:40.476Z,99682.42
2023-04-14T05:22:43.351Z,99678.98
2023-04-14T05:23:47.101Z,99681.15
2023-04-14T05:24:51.240Z,99680.96
2023-04-14T05:26:04.260Z,99684.14
2023-04-14T05:27:22.086Z,99686.48
2023-04-14T05:28:25.301Z,99684.73
2023-04-14T05:29:35.188Z,99686.96
2023-04-14T05:30:38.078Z,99684.14
2023-04-14T05:31:41.057Z,99683.20
2023-04-14T05:32:44.053Z,99683.72
2023-04-14T05:33:46.895Z,99686.80
2023-04-14T05:34:49.796Z,99684.60
2023-04-14T05:35:52.633Z,99684.72
2023-04-14T05:36:55.542Z,99681.77
2023-04-14T05:37:58.512Z,99686.42
2023-04-14T05:39:01.441Z,99682.77
2023-04-14T05:40:05.045Z,99684.29
2023-04-14T05:41:07.904Z,99685.06
2023-04-14T05:42:11.188Z,99687.92
2023-04-14T05:43:14.863Z,99688.95
2023-04-14T05:44:17.787Z,99691.00
2023-04-14T05:45:20.726Z,99688.80
2023-04-14T05:46:23.635Z,99690.31
2023-04-14T05:47:26.554Z,99688.96
2023-04-14T05:48:31.048Z,99689.79
2023-04-14T05:49:33.941Z,99688.09
2023-04-14T05:50:38.449Z,99692.31
2023-04-14T05:51:41.394Z,99690.27
2023-04-14T05:52:44.725Z,99694.45
2023-04-14T05:53:47.584Z,99691.67
2023-04-14T05:54:50.442Z,99695.64
2023-04-14T05:55:53.530Z,99699.46
2023-04-14T05:56:57.810Z,99695.92
2023-04-14T05:58:00.978Z,99693.44
2023-04-14T05:59:04.351Z,99691.14
2023-04-14T06:00:08.390Z,99692.94
2023-04-14T06:01:18.151Z,99686.36
2023-04-14T06:02:21.027Z,99690.35
2023-04-14T06:03:24.169Z,99687.35
2023-04-14T06:04:27.198Z,99687.98
2023-04-14T06:05:30.192Z,99689.77
2023-04-14T06:06:33.555Z,99691.73
2023-04-14T06:07:37.072Z,99698.90
2023-04-14T06:08:39.900Z,99694.34
2023-04-14T06:09:42.862Z,99695.70
2023-04-14T06:10:45.873Z,99700.60
2023-04-14T06:11:48.777Z,99698.85
2023-04-14T06:12:51.642Z,99699.56
2023-04-14T06:13:54.438Z,99702.09
2023-04-14T06:14:57.313Z,99701.58
2023-04-14T06:16:00.885Z,99703.38
2023-04-14T06:17:04.153Z,99703.98
2023-04-14T06:18:07.055Z,99702.45
2023-04-14T06:19:10.908Z,99705.73
2023-04-14T06:20:13.825Z,99703.77
2023-04-14T06:21:16.687Z,99698.71
2023-04-14T06:22:19.992Z,99702.98
2023-04-14T06:23:24.688Z,99699.50
2023-04-14T06:24:27.497Z,99701.70
2023-04-14T06:25:31.030Z,99697.36
2023-04-14T06:26:34.386Z,99695.79
2023-04-14T06:27:37.521Z,99696.59
2023-04-14T06:28:42.066Z,99697.02
2023-04-14T06:29:46.174Z,99701.63
2023-04-14T06:30:49.690Z,99699.89
2023-04-14T06:31:53.096Z,99693.42
2023-04-14T06:32:56.362Z,99697.83
2023-04-14T06:33:59.271Z,99693.91
2023-04-14T06:35:05.057Z,99699.89
2023-04-14T06:36:08.301Z,99696.23
2023-04-14T06:37:11.153Z,99695.86
2023-04-14T06:38:14.005Z,99691.07
2023-04-14T06:39:16.885Z,99701.40
2023-04-14T06:40:19.725Z,99690.11
2023-04-14T06:41:22.622Z,99688.60
2023-04-14T06:42:25.857Z,99692.23
2023-04-14T06:43:29.034Z,99687.45
2023-04-14T06:44:31.851Z,99690.91
2023-04-14T06:45:34.758Z,99691.66
2023-04-14T06:46:37.614Z,99695.45
2023-04-14T06:47:40.911Z,99695.67
2023-04-14T06:48:44.144Z,99695.53
2023-04-14T06:49:47.065Z,99694.86
2023-04-14T06:50:54.863Z,99696.55
2023-04-14T06:51:57.875Z,99695.58
2023-04-14T06:53:00.876Z,99698.40
2023-04-14T06:54:04.015Z,99692.07
2023-04-14T06:55:07.311Z,99694.42
2023-04-14T06:56:10.154Z,99690.67
2023-04-14T06:57:13.454Z,99689.92
2023-04-14T06:58:16.358Z,99687.54
2023-04-14T06:59:21.441Z,99688.40
2023-04-14T07:00:24.464Z,99688.34
2023-04-14T07:01:27.317Z,99684.91
2023-04-14T07:02:30.445Z,99685.28
2023-04-14T07:03:34.599Z,99686.45
2023-04-14T07:04:40.558Z,99681.92
2023-04-14T07:05:43.400Z,99682.34
2023-04-14T07:06:46.219Z,99682.92
2023-04-14T07:07:49.010Z,99684.60
2023-04-14T07:08:51.905Z,99684.89
2023-04-14T07:09:55.019Z,99684.77
2023-04-14T07:11:02.886Z,99688.49
2023-04-14T07:12:06.171Z,99689.83
2023-04-14T07:13:08.980Z,99691.91
2023-04-14T07:14:12.552Z,99693.88
2023-04-14T07:15:15.586Z,99694.88
2023-04-14T07:16:18.486Z,99692.50
2023-04-14T07:17:21.402Z,99690.86
2023-04-14T07:18:24.373Z,99687.27
2023-04-14T07:19:27.281Z,99686.92
2023-04-14T07:20:30.586Z,99687.16
2023-04-14T07:21:33.420Z,99689.55
2023-04-14T07:22:36.273Z,99688.21
2023-04-14T07:23:39.858Z,99691.02
2023-04-14T07:24:42.749Z,99688.27
2023-04-14T07:25:50.432Z,99685.02
2023-04-14T07:26:53.348Z,99685.20
2023-04-14T07:28:03.208Z,99689.09
2023-04-14T07:29:06.674Z,99688.64
2023-04-14T07:30:09.813Z,99688.23
2023-04-14T07:31:12.809Z,99691.21
2023-04-14T07:32:16.035Z,99692.67
2023-04-14T07:33:19.309Z,99692.29
2023-04-14T07:34:22.733Z,99691.96
2023-04-14T07:35:26.499Z,99695.70
2023-04-14T07:36:30.946Z,99693.52
2023-04-14T07:37:34.547Z,99693.93
2023-04-14T07:38:37.450Z,99696.66
2023-04-14T07:39:40.772Z,99697.36
2023-04-14T07:40:43.672Z,99694.44
2023-04-14T07:41:46.642Z,99692.05
2023-04-14T07:42:49.488Z,99697.23
2023-04-14T07:43:55.678Z,99694.88
2023-04-14T07:44:58.670Z,99704.20
2023-04-14T07:46:06.739Z,99697.44
2023-04-14T07:47:09.797Z,99704.56
2023-04-14T07:48:12.809Z,99701.74
2023-04-14T07:49:15.681Z,99697.73
2023-04-14T07:50:19.872Z,99698.67
2023-04-14T07:51:22.947Z,99697.52
2023-04-14T07:52:25.986Z,99700.84
2023-04-14T07:53:28.875Z,99698.95
2023-04-14T07:54:31.976Z,99696.10
2023-04-14T07:55:34.902Z,99695.91
2023-04-14T07:56:37.915Z,99693.77
2023-04-14T07:57:41.236Z,99696.36
2023-04-14T07:58:44.551Z,99695.63
2023-04-14T07:59:47.804Z,99694.14
2023-04-14T08:00:50.619Z,99695.09
2023-04-14T08:01:53.943Z,99697.38
2023-04-14T08:02:56.970Z,99694.83
2023-04-14T08:03:59.983Z,99692.55
2023-04-14T08:05:04.524Z,99692.41
2023-04-14T08:06:08.356Z,99695.20
2023-04-14T08:07:11.224Z,99690.23
2023-04-14T08:08:14.275Z,99691.77
2023-04-14T08:09:17.380Z,99695.23
2023-04-14T08:10:21.650Z,99692.65
2023-04-14T08:11:24.744Z,99697.59
2023-04-14T08:12:27.932Z,99694.51
2023-04-14T08:13:30.804Z,99690.66
2023-04-14T08:14:33.625Z,99690.20
2023-04-14T08:15:36.610Z,99691.63
2023-04-14T08:16:39.589Z,99685.10
2023-04-14T08:17:42.575Z,99685.33
2023-04-14T08:18:45.807Z,99684.02
2023-04-14T08:19:48.733Z,99683.60
2023-04-14T08:20:51.597Z,99682.30
2023-04-14T08:21:54.774Z,99679.74
2023-04-14T08:22:57.999Z,99685.13
2023-04-14T08:24:01.148Z,99683.42
2023-04-14T08:25:04.266Z,99679.59
2023-04-14T08:26:07.186Z,99676.57
2023-04-14T08:27:10.642Z,99678.98
2023-04-14T08:28:13.574Z,99679.80
2023-04-14T08:29:16.745Z,99675.61
2023-04-14T08:30:19.542Z,99677.05
2023-04-14T08:31:24.541Z,99678.02
2023-04-14T08:32:28.643Z,99676.95
2023-04-14T08:33:33.943Z,99677.86
2023-04-14T08:34:36.841Z,99678.83
2023-04-14T08:35:42.584Z,99677.47
2023-04-14T08:36:47.683Z,99681.34
2023-04-14T08:37:50.497Z,99687.83
2023-04-14T08:38:53.834Z,99683.80
2023-04-14T08:39:56.990Z,99683.51
2023-04-14T08:41:03.837Z,99682.16
2023-04-14T08:42:08.194Z,99679.09
2023-04-14T08:43:13.861Z,99677.52
2023-04-14T08:44:18.972Z,99675.04
2023-04-14T08:45:22.150Z,99669.25
2023-04-14T08:46:27.370Z,99671.20
2023-04-14T08:47:33.215Z,99673.45
2023-04-14T08:48:36.557Z,99670.23
2023-04-14T08:49:45.965Z,99670.14
2023-04-14T08:51:15.752Z,99667.26
2023-04-14T08:52:23.475Z,99673.56
2023-04-14T08:53:28.017Z,99667.17
2023-04-14T08:54:31.473Z,99664.23
2023-04-14T08:55:40.525Z,99659.92
2023-04-14T08:56:43.479Z,99668.13
2023-04-14T08:57:48.422Z,99667.89
2023-04-14T08:58:51.473Z,99659.27
2023-04-14T08:59:59.525Z,99657.73
2023-04-14T09:01:03.488Z,99657.17
2023-04-14T09:02:07.197Z,99658.10
2023-04-14T09:03:11.587Z,99660.03
2023-04-14T09:04:15.406Z,99665.98
2023-04-14T09:05:18.908Z,99657.78
2023-04-14T09:06:23.180Z,99654.63
2023-04-14T09:07:28.915Z,99655.54
2023-04-14T09:08:34.214Z,99653.21
2023-04-14T09:09:37.408Z,99651.23
2023-04-14T09:10:41.801Z,99653.95
2023-04-14T09:11:45.188Z,99649.73
2023-04-14T09:12:48.879Z,99652.83
2023-04-14T09:13:54.143Z,99650.13
2023-04-14T09:14:58.976Z,99655.05
2023-04-14T09:16:02.009Z,99651.16
2023-04-14T09:17:04.985Z,99652.53
2023-04-14T09:18:08.049Z,99655.27
2023-04-14T09:19:11.454Z,99660.66
2023-04-14T09:20:37.934Z,99656.15
2023-04-14T09:21:53.310Z,99663.45
2023-04-14T09:22:58.255Z,99665.52
2023-04-14T09:24:01.340Z,99659.00
2023-04-14T09:25:05.167Z,99658.59
2023-04-14T09:26:10.477Z,99664.73
2023-04-14T09:27:13.733Z,99662.20
2023-04-14T09:28:16.926Z,99663.72
2023-04-14T09:29:19.840Z,99665.85
2023-04-14T09:30:23.263Z,99662.50
2023-04-14T09:31:27.253Z,99665.56
2023-04-14T09:32:31.173Z,99664.46
2023-04-14T09:33:39.294Z,99667.61
2023-04-14T09:34:57.787Z,99668.45
2023-04-14T09:36:01.573Z,99665.58
2023-04-14T09:37:09.868Z,99661.40
2023-04-14T09:38:12.862Z,99661.15
2023-04-14T09:39:18.825Z,99660.42
2023-04-14T09:40:29.288Z,99656.91
2023-04-14T09:41:32.687Z,99661.79
2023-04-14T09:42:40.189Z,99660.53
2023-04-14T09:43:43.238Z,99663.82
2023-04-14T09:45:12.416Z,99663.63
2023-04-14T09:46:18.504Z,99662.66
2023-04-14T09:47:22.842Z,99665.06
2023-04-14T09:48:26.046Z,99663.38
2023-04-14T09:49:30.024Z,99663.66
2023-04-14T09:50:33.647Z,99663.98
2023-04-14T09:51:38.078Z,99662.09
2023-04-14T09:52:45.257Z,99661.82
2023-04-14T09:53:48.750Z,99659.93
2023-04-14T09:54:56.278Z,99660.94
2023-04-14T09:56:03.429Z,99658.36
2023-04-14T09:57:07.644Z,99653.15
2023-04-14T09:58:10.850Z,99650.66
2023-04-14T09:59:13.811Z,99650.38
2023-04-14T10:00:17.992Z,99645.95
2023-04-14T10:01:29.187Z,99650.41
2023-04-14T10:02:59.148Z,99650.23
2023-04-14T10:04:03.004Z,99646.34
2023-04-14T10:05:07.057Z,99646.27
2023-04-14T10:06:17.201Z,99644.83
2023-04-14T10:07:20.123Z,99639.15
2023-04-14T10:08:33.421Z,99640.68
2023-04-14T10:09:37.922Z,99642.09
2023-04-14T10:10:41.258Z,99640.19
2023-04-14T10:11:44.676Z,99636.38
2023-04-14T10:12:47.681Z,99641.85
2023-04-14T10:13:53.690Z,99641.81
2023-04-14T10:14:56.551Z,99643.08
2023-04-14T10:15:59.879Z,99643.15
2023-04-14T10:17:02.889Z,99637.98
2023-04-14T10:18:06.260Z,99640.02
2023-04-14T10:19:09.153Z,99641.88
2023-04-14T10:20:12.117Z,99638.88
2023-04-14T10:21:16.238Z,99636.20
2023-04-14T10:22:21.064Z,99638.52
2023-04-14T10:23:25.060Z,99643.67
2023-04-14T10:24:28.168Z,99643.98
2023-04-14T10:25:31.305Z,99643.46
2023-04-14T10:26:36.054Z,99643.81
2023-04-14T10:27:39.745Z,99641.62
2023-04-14T10:28:46.060Z,99642.35
2023-04-14T10:29:49.254Z,99637.45
2023-04-14T10:30:54.238Z,99638.48
2023-04-14T10:32:03.775Z,99643.77
2023-04-14T10:33:07.006Z,99640.88
2023-04-14T10:34:13.938Z,99641.24
2023-04-14T10:35:18.653Z,99639.30
2023-04-14T10:36:25.825Z,99647.34
2023-04-14T10:37:28.654Z,99644.73
2023-04-14T10:38:45.837Z,99643.17
2023-04-14T10:39:56.525Z,99642.39
2023-04-14T10:41:00.175Z,99641.20
2023-04-14T10:42:03.018Z,99638.35
2023-04-14T10:43:12.354Z,99639.97
2023-04-14T10:44:34.877Z,99643.20
2023-04-14T10:45:57.535Z,99639.04
2023-04-14T10:47:02.492Z,99636.36
2023-04-14T10:48:06.303Z,99641.65
2023-04-14T10:49:12.391Z,99640.42
2023-04-14T10:50:22.241Z,99637.89
2023-04-14T10:51:35.917Z,99639.05
2023-04-14T10:52:48.492Z,99637.43
2023-04-14T10:53:55.394Z,99632.95
2023-04-14T10:55:08.115Z,99634.95
2023-04-14T10:56:11.318Z,99632.97
2023-04-14T10:57:17.804Z,99629.33
2023-04-14T10:58:22.423Z,99632.38
2023-04-14T10:59:28.783Z,99628.96
2023-04-14T11:00:32.885Z,99623.98
2023-04-14T11:01:37.996Z,99627.77
2023-04-14T11:02:54.955Z,99628.69
2023-04-14T11:04:10.828Z,99625.97
2023-04-14T11:05:13.746Z,99624.52
2023-04-14T11:06:48.466Z,99618.82
2023-04-14T11:07:56.124Z,99616.46
2023-04-14T11:08:59.182Z,99617.71
2023-04-14T11:10:25.752Z,99617.74
2023-04-14T11:11:28.646Z,99619.77
2023-04-14T11:12:31.655Z,99617.41
2023-04-14T11:13:35.678Z,99621.33
2023-04-14T11:14:38.519Z,99623.29
2023-04-14T11:15:50.817Z,99617.68
2023-04-14T11:17:04.315Z,99611.94
2023-04-14T11:18:29.836Z,99614.42
2023-04-14T11:19:33.375Z,99614.08
2023-04-14T11:20:40.566Z,99607.27
2023-04-14T11:21:50.094Z,99610.65
2023-04-14T11:22:54.209Z,99615.42
2023-04-14T11:23:59.216Z,99614.33
2023-04-14T11:25:02.562Z,99613.55
2023-04-14T11:26:10.973Z,99611.02
2023-04-14T11:27:14.978Z,99611.48
2023-04-14T11:28:46.365Z,99609.98
2023-04-14T11:29:49.993Z,99606.02
2023-04-14T11:30:53.179Z,99614.73
2023-04-14T11:32:01.578Z,99614.09
2023-04-14T11:33:04.631Z,99622.45
2023-04-14T11:34:07.735Z,99617.04
2023-04-14T11:35:11.044Z,99615.46
2023-04-14T11:36:14.036Z,99614.63
2023-04-14T11:37:16.967Z,99605.58
2023-04-14T11:38:20.881Z,99609.80
2023-04-14T11:39:25.103Z,99607.52
2023-04-14T11:40:28.163Z,99607.90
2023-04-14T11:41:31.159Z,99613.98
2023-04-14T11:42:34.046Z,99606.77
2023-04-14T11:43:46.361Z,99608.98
2023-04-14T11:44:58.146Z,99606.91
2023-04-14T11:46:02.082Z,99607.89
2023-04-14T11:47:05.249Z,99615.30
2023-04-14T11:48:10.096Z,99619.17
2023-04-14T11:49:13.042Z,99616.06
2023-04-14T11:50:17.246Z,99607.58
2023-04-14T11:51:20.097Z,99607.05
2023-04-14T11:52:23.018Z,99608.27
2023-04-14T11:53:26.284Z,99608.81
2023-04-14T11:54:39.082Z,99608.34
2023-04-14T11:55:44.268Z,99605.45
2023-04-14T11:56:48.093Z,99603.70
2023-04-14T11:57:51.159Z,99600.77
2023-04-14T11:59:02.380Z,99603.77
2023-04-14T12:00:06.261Z,99593.83
2023-04-14T12:01:09.162Z,99595.05
2023-04-14T12:02:19.276Z,99589.14
2023-04-14T12:03:27.953Z,99590.00
2023-04-14T12:04:31.720Z,99594.95
2023-04-14T12:05:35.708Z,99589.54
2023-04-14T12:06:39.207Z,99594.13
2023-04-14T12:07:43.945Z,99595.44
2023-04-14T12:08:52.479Z,99593.59
2023-04-14T12:09:55.327Z,99594.33
2023-04-14T12:10:58.926Z,99589.73
2023-04-14T12:12:09.798Z,99591.20
2023-04-14T12:13:12.682Z,99593.63
2023-04-14T12:14:16.062Z,99590.16
2023-04-14T12:15:19.143Z,99584.51
2023-04-14T12:16:23.563Z,99577.46
2023-04-14T12:17:26.926Z,99585.16
2023-04-14T12:18:30.331Z,99584.33
2023-04-14T12:19:33.383Z,99579.12
2023-04-14T12:20:43.306Z,99582.69
2023-04-14T12:21:52.572Z,99583.85
2023-04-14T12:23:04.923Z,99583.59
2023-04-14T12:24:07.778Z,99586.02
2023-04-14T12:25:12.563Z,99590.30
2023-04-14T12:26:16.091Z,99590.09
2023-04-14T12:27:22.781Z,99585.54
2023-04-14T12:28:30.219Z,99578.20
2023-04-14T12:29:34.802Z,99574.33
2023-04-14T12:30:37.961Z,99572.98
2023-04-14T12:31:44.809Z,99571.48
2023-04-14T12:32:47.818Z,99565.30
2023-04-14T12:33:50.669Z,99565.65
2023-04-14T12:34:57.911Z,99570.67
2023-04-14T12:36:04.992Z,99571.45
2023-04-14T12:37:09.856Z,99568.42
2023-04-14T12:38:13.629Z,99562.45
2023-04-14T12:39:16.683Z,99565.11
2023-04-14T12:40:38.134Z,99567.66
2023-04-14T12:41:42.079Z,99568.56
2023-04-14T12:42:51.462Z,99562.52
2023-04-14T12:43:54.596Z,99560.64
2023-04-14T12:45:02.279Z,99562.31
2023-04-14T12:46:06.245Z,99563.40
2023-04-14T12:47:09.299Z,99560.48
2023-04-14T12:48:13.364Z,99565.54
2023-04-14T12:49:31.666Z,99564.94
2023-04-14T12:50:34.538Z,99566.35
2023-04-14T12:51:41.335Z,99561.72